createdAt,value
2023-01-13T00:04:22.597Z,6.26
2023-01-13T00:09:28.845Z,6.27
2023-01-13T00:14:36.325Z,6.29
2023-01-13T00:19:38.564Z,6.28
2023-01-13T00:24:40.682Z,6.26
2023-01-13T00:29:43.729Z,6.27
2023-01-13T00:34:51.710Z,6.23
2023-01-13T00:39:54.380Z,6.20
2023-01-13T00:44:56.738Z,6.20
2023-01-13T00:49:59.665Z,6.22
2023-01-13T00:55:03.426Z,6.26
2023-01-13T01:00:06.603Z,6.29
2023-01-13T01:05:09.523Z,6.25
2023-01-13T01:10:12.369Z,6.25
2023-01-13T01:15:14.679Z,6.25
2023-01-13T01:20:17.731Z,6.24
2023-01-13T01:25:20.153Z,6.23
2023-01-13T01:30:22.651Z,6.21
2023-01-13T01:35:30.006Z,6.24
2023-01-13T01:40:32.732Z,6.23
2023-01-13T01:45:35.664Z,6.23
2023-01-13T01:50:40.215Z,6.26
2023-01-13T01:55:43.381Z,6.31
2023-01-13T02:00:46.342Z,6.34
2023-01-13T02:05:50.284Z,6.35
2023-01-13T02:10:54.582Z,6.35
2023-01-13T02:16:15.947Z,6.39
2023-01-13T02:22:01.208Z,6.39
2023-01-13T02:27:41.905Z,6.41
2023-01-13T02:33:03.445Z,6.43
2023-01-13T02:38:08.751Z,6.45
2023-01-13T02:43:43.939Z,6.50
2023-01-13T02:48:52.240Z,6.55
2023-01-13T02:53:59.157Z,6.59
2023-01-13T02:59:03.573Z,6.64
2023-01-13T03:04:48.324Z,6.64
2023-01-13T03:10:10.701Z,6.63
2023-01-13T03:15:45.271Z,6.65
2023-01-13T03:21:05.425Z,6.66
2023-01-13T03:26:17.809Z,6.65
2023-01-13T03:31:29.879Z,6.62
2023-01-13T03:36:36.063Z,6.63
2023-01-13T03:41:45.897Z,6.61
2023-01-13T03:46:59.262Z,6.59
2023-01-13T03:52:08.615Z,6.61
2023-01-13T03:57:15.968Z,6.61
2023-01-13T04:02:26.983Z,6.59
2023-01-13T04:07:56.438Z,6.58
2023-01-13T04:13:07.068Z,6.58
2023-01-13T04:18:23.742Z,6.55
2023-01-13T04:23:28.808Z,6.51
2023-01-13T04:28:31.282Z,6.53
2023-01-13T04:33:33.887Z,6.59
2023-01-13T04:38:37.081Z,6.60
2023-01-13T04:43:41.268Z,6.62
2023-01-13T04:48:46.118Z,6.66
2023-01-13T04:53:52.506Z,6.62
2023-01-13T04:58:55.403Z,6.60
2023-01-13T05:03:58.786Z,6.59
2023-01-13T05:09:03.148Z,6.59
2023-01-13T05:14:24.338Z,6.56
2023-01-13T05:19:40.065Z,6.53
2023-01-13T05:25:02.003Z,6.52
2023-01-13T05:30:06.619Z,6.54
2023-01-13T05:35:09.635Z,6.57
2023-01-13T05:40:33.925Z,6.55
2023-01-13T05:45:36.678Z,6.52
2023-01-13T05:50:40.287Z,6.49
2023-01-13T05:55:43.133Z,6.49
2023-01-13T06:00:46.377Z,6.48
2023-01-13T06:05:52.653Z,6.42
2023-01-13T06:10:55.461Z,6.40
2023-01-13T06:16:00.570Z,6.40
2023-01-13T06:21:04.943Z,6.39
2023-01-13T06:26:21.823Z,6.38
2023-01-13T06:31:28.876Z,6.38
2023-01-13T06:36:39.236Z,6.42
2023-01-13T06:42:01.795Z,6.47
2023-01-13T06:47:05.621Z,6.48
2023-01-13T06:52:13.250Z,6.51
2023-01-13T06:57:19.586Z,6.47
2023-01-13T07:02:23.180Z,6.42
2023-01-13T07:07:29.379Z,6.40
2023-01-13T07:12:53.325Z,6.40
2023-01-13T07:18:00.270Z,6.40
2023-01-13T07:23:03.754Z,6.40
2023-01-13T07:28:08.389Z,6.38
2023-01-13T07:33:13.139Z,6.36
2023-01-13T07:38:16.569Z,6.35
2023-01-13T07:43:32.841Z,6.33
2023-01-13T07:48:40.646Z,6.35
2023-01-13T07:53:44.199Z,6.39
2023-01-13T07:58:51.441Z,6.47
2023-01-13T08:03:59.299Z,6.56
2023-01-13T08:09:04.307Z,6.63
2023-01-13T08:14:07.990Z,6.72
2023-01-13T08:19:11.945Z,6.79
2023-01-13T08:24:16.830Z,6.85
2023-01-13T08:29:22.370Z,6.90
2023-01-13T08:34:27.036Z,6.95
2023-01-13T08:39:30.353Z,7.04
2023-01-13T08:44:34.561Z,7.19
2023-01-13T08:49:38.175Z,7.27
2023-01-13T08:54:43.061Z,7.35
2023-01-13T08:59:47.096Z,7.42
2023-01-13T09:04:51.096Z,7.43
2023-01-13T09:09:57.603Z,7.43
2023-01-13T09:15:03.288Z,7.44
2023-01-13T09:20:08.086Z,7.42
2023-01-13T09:25:13.400Z,7.47
2023-01-13T09:30:17.272Z,7.51
2023-01-13T09:35:20.961Z,7.48
2023-01-13T09:40:23.946Z,7.47
2023-01-13T09:45:42.136Z,7.54
2023-01-13T09:51:14.806Z,7.59
2023-01-13T09:56:22.314Z,7.64
2023-01-13T10:01:37.452Z,7.63
2023-01-13T10:06:48.443Z,7.67
2023-01-13T10:12:16.330Z,7.75
2023-01-13T10:17:45.982Z,7.85
2023-01-13T10:23:39.508Z,7.90
2023-01-13T10:28:51.867Z,7.96
2023-01-13T10:34:00.668Z,8.01
2023-01-13T10:39:16.751Z,8.04
2023-01-13T10:44:20.595Z,8.12
2023-01-13T10:50:00.134Z,8.22
2023-01-13T10:55:06.218Z,8.42
2023-01-13T11:00:29.336Z,8.70
2023-01-13T11:05:32.961Z,8.84
2023-01-13T11:10:47.202Z,8.91
2023-01-13T11:16:02.492Z,8.88
2023-01-13T11:21:24.979Z,8.87
2023-01-13T11:26:48.075Z,8.84
2023-01-13T11:32:00.853Z,8.82
2023-01-13T11:37:14.917Z,8.82
2023-01-13T11:42:33.860Z,8.80
2023-01-13T11:47:38.687Z,8.74
2023-01-13T11:53:10.334Z,8.70
2023-01-13T11:58:35.987Z,8.72
2023-01-13T12:04:28.663Z,8.76
2023-01-13T12:09:46.192Z,8.81
2023-01-13T12:15:05.417Z,8.83
2023-01-13T12:20:27.831Z,8.82
2023-01-13T12:25:35.624Z,8.81
2023-01-13T12:30:44.067Z,8.79
2023-01-13T12:36:01.567Z,8.76
2023-01-13T12:41:34.614Z,8.73
2023-01-13T12:46:55.844Z,8.70
2023-01-13T12:52:07.842Z,8.68
2023-01-13T12:57:27.814Z,8.66
2023-01-13T13:02:37.685Z,8.68
2023-01-13T13:07:51.254Z,8.66
2023-01-13T13:13:16.202Z,8.64
2023-01-13T13:18:25.195Z,8.69
2023-01-13T13:23:36.703Z,8.70
2023-01-13T13:28:49.508Z,8.71
2023-01-13T13:34:21.426Z,8.71
2023-01-13T13:39:48.534Z,8.69
2023-01-13T13:45:09.990Z,8.66
2023-01-13T13:50:22.279Z,8.69
2023-01-13T13:55:30.841Z,8.73
2023-01-13T14:00:37.965Z,8.77
2023-01-13T14:05:57.975Z,8.75
2023-01-13T14:11:01.341Z,8.72
2023-01-13T14:16:08.396Z,8.71
2023-01-13T14:21:25.468Z,8.73
2023-01-13T14:26:31.747Z,8.73
2023-01-13T14:31:34.638Z,8.73
2023-01-13T14:36:38.448Z,8.76
2023-01-13T14:41:50.868Z,8.74
2023-01-13T14:46:56.318Z,8.70
2023-01-13T14:52:13.488Z,8.65
2023-01-13T14:57:17.327Z,8.63
2023-01-13T15:02:28.972Z,8.60
2023-01-13T15:07:32.822Z,8.55
2023-01-13T15:12:40.429Z,8.53
2023-01-13T15:17:46.895Z,8.53
2023-01-13T15:22:50.641Z,8.51
2023-01-13T15:27:53.656Z,8.49
2023-01-13T15:32:59.334Z,8.44
2023-01-13T15:38:01.551Z,8.40
2023-01-13T15:43:22.850Z,8.41
2023-01-13T15:48:27.755Z,8.41
2023-01-13T15:53:30.716Z,8.40
2023-01-13T15:58:33.961Z,8.35
2023-01-13T16:03:37.967Z,8.29
2023-01-13T16:08:41.368Z,8.31
2023-01-13T16:13:44.302Z,8.25
2023-01-13T16:18:49.570Z,8.18
2023-01-13T16:23:53.861Z,8.22
2023-01-13T16:28:57.684Z,8.27
2023-01-13T16:34:02.846Z,8.30
2023-01-13T16:39:19.700Z,8.29
2023-01-13T16:44:23.325Z,8.25
2023-01-13T16:49:26.562Z,8.22
2023-01-13T16:54:29.173Z,8.20
2023-01-13T16:59:33.587Z,8.14
2023-01-13T17:04:36.456Z,8.08
2023-01-13T17:09:41.042Z,8.07
2023-01-13T17:14:45.613Z,8.07
2023-01-13T17:19:48.965Z,8.03
2023-01-13T17:24:53.743Z,8.01
2023-01-13T17:29:57.215Z,7.99
2023-01-13T17:35:02.835Z,8.02
2023-01-13T17:40:06.332Z,8.03
2023-01-13T17:45:11.336Z,7.98
2023-01-13T17:50:15.100Z,7.98
2023-01-13T17:55:18.159Z,8.01
2023-01-13T18:00:21.433Z,8.04
2023-01-13T18:05:24.468Z,8.01
2023-01-13T18:10:27.726Z,7.96
2023-01-13T18:15:30.520Z,7.99
2023-01-13T18:20:51.888Z,7.98
2023-01-13T18:26:14.674Z,7.99
2023-01-13T18:31:17.867Z,8.00
2023-01-13T18:36:20.490Z,8.01
2023-01-13T18:41:42.039Z,8.02
2023-01-13T18:46:44.767Z,8.03
2023-01-13T18:51:47.007Z,8.03
2023-01-13T18:56:51.178Z,8.01
2023-01-13T19:01:55.976Z,7.97
2023-01-13T19:07:01.095Z,7.90
2023-01-13T19:12:06.704Z,7.88
2023-01-13T19:17:15.023Z,7.84
2023-01-13T19:22:23.213Z,7.72
2023-01-13T19:27:30.381Z,7.62
2023-01-13T19:32:33.252Z,7.54
2023-01-13T19:37:37.156Z,7.48
2023-01-13T19:43:01.503Z,7.46
2023-01-13T19:48:08.063Z,7.44
2023-01-13T19:53:17.265Z,7.40
2023-01-13T19:58:23.919Z,7.34
2023-01-13T20:03:31.686Z,7.27
2023-01-13T20:08:37.295Z,7.21
2023-01-13T20:13:43.000Z,7.17
2023-01-13T20:18:50.894Z,7.18
2023-01-13T20:23:56.965Z,7.14
2023-01-13T20:29:03.728Z,7.07
2023-01-13T20:34:09.562Z,6.97
2023-01-13T20:39:20.394Z,6.96
2023-01-13T20:44:27.073Z,6.93
2023-01-13T20:49:34.036Z,6.95
2023-01-13T20:54:40.212Z,6.97
2023-01-13T20:59:45.975Z,6.94
2023-01-13T21:04:52.470Z,6.91
2023-01-13T21:09:57.721Z,6.90
2023-01-13T21:15:18.038Z,6.89
2023-01-13T21:20:21.816Z,6.76
2023-01-13T21:25:26.961Z,6.67
2023-01-13T21:30:32.041Z,6.56
2023-01-13T21:35:39.613Z,6.50
2023-01-13T21:40:45.881Z,6.47
2023-01-13T21:46:09.719Z,6.46
2023-01-13T21:51:18.711Z,6.40
2023-01-13T21:56:25.102Z,6.40
2023-01-13T22:01:28.369Z,6.39
2023-01-13T22:06:32.699Z,6.38
2023-01-13T22:11:36.048Z,6.32
2023-01-13T22:16:49.193Z,6.23
2023-01-13T22:21:53.295Z,6.17
2023-01-13T22:26:57.220Z,6.16
2023-01-13T22:32:00.576Z,6.15
2023-01-13T22:37:04.456Z,6.18
2023-01-13T22:42:06.564Z,6.18
2023-01-13T22:47:09.353Z,6.14
2023-01-13T22:52:11.337Z,6.05
2023-01-13T22:57:13.166Z,5.91
2023-01-13T23:02:15.878Z,5.87
2023-01-13T23:07:18.044Z,5.85
2023-01-13T23:12:20.356Z,5.80
2023-01-13T23:17:22.559Z,5.75
2023-01-13T23:22:25.700Z,5.76
2023-01-13T23:27:28.540Z,5.73
2023-01-13T23:32:32.313Z,5.69
2023-01-13T23:37:35.215Z,5.57
2023-01-13T23:42:39.102Z,5.38
2023-01-13T23:47:47.760Z,5.30
2023-01-13T23:52:50.987Z,5.23
2023-01-13T23:57:58.808Z,5.19
